createdAt,value
2017-05-31T00:00:47.813Z,0
2017-05-31T00:01:47.794Z,0
2017-05-31T00:02:47.566Z,0
2017-05-31T00:03:47.910Z,0
2017-05-31T00:04:47.941Z,0
2017-05-31T00:05:47.349Z,0
2017-05-31T00:06:47.577Z,0
2017-05-31T00:07:47.719Z,0
2017-05-31T00:08:47.436Z,0
2017-05-31T00:09:48.088Z,0
2017-05-31T00:10:47.816Z,0
2017-05-31T00:11:48.362Z,0
2017-05-31T00:12:47.558Z,0
2017-05-31T00:13:48.211Z,0
2017-05-31T00:14:47.940Z,0
2017-05-31T00:15:48.276Z,0
2017-05-31T00:16:47.932Z,0
2017-05-31T00:17:48.011Z,0
2017-05-31T00:18:48.056Z,0
2017-05-31T00:19:48.083Z,0
2017-05-31T00:20:48.421Z,0
2017-05-31T00:21:48.025Z,0
2017-05-31T00:22:48.179Z,0
2017-05-31T00:23:47.596Z,0
2017-05-31T00:24:48.556Z,0
2017-05-31T00:25:48.590Z,0
2017-05-31T00:26:48.870Z,0
2017-05-31T00:27:48.326Z,0
2017-05-31T00:28:48.051Z,0
2017-05-31T00:29:48.076Z,0
2017-05-31T00:30:48.729Z,0
2017-05-31T00:31:48.649Z,0
2017-05-31T00:32:48.483Z,0
2017-05-31T00:33:48.511Z,0
2017-05-31T00:34:48.856Z,0
2017-05-31T00:35:48.884Z,0
2017-05-31T00:36:49.110Z,0
2017-05-31T00:37:48.947Z,0
2017-05-31T00:38:48.663Z,0
2017-05-31T00:39:49.001Z,0
2017-05-31T00:40:48.742Z,0
2017-05-31T00:41:49.011Z,0
2017-05-31T00:42:49.090Z,0
2017-05-31T00:43:48.819Z,0
2017-05-31T00:44:49.165Z,0
2017-05-31T00:45:48.880Z,0
2017-05-31T00:46:49.102Z,0
2017-05-31T00:47:48.939Z,0
2017-05-31T00:48:48.964Z,0
2017-05-31T00:49:49.000Z,0
2017-05-31T00:50:49.333Z,0
2017-05-31T00:51:49.306Z,0
2017-05-31T00:52:49.084Z,0
2017-05-31T00:53:49.427Z,0
2017-05-31T00:54:49.148Z,0
2017-05-31T00:55:48.870Z,0
2017-05-31T00:56:49.141Z,0
2017-05-31T00:57:48.918Z,0
2017-05-31T00:58:49.276Z,0
2017-05-31T00:59:48.989Z,0
2017-05-31T01:00:49.329Z,0
2017-05-31T01:01:49.871Z,0
2017-05-31T01:02:49.703Z,0
2017-05-31T01:03:49.737Z,0
2017-05-31T01:04:49.763Z,0
2017-05-31T01:05:49.805Z,0
2017-05-31T01:06:49.093Z,0
2017-05-31T01:07:49.859Z,0
2017-05-31T01:08:49.888Z,0
2017-05-31T01:09:49.919Z,0
2017-05-31T01:10:49.943Z,0
2017-05-31T01:11:49.919Z,0
2017-05-31T01:12:50.012Z,0
2017-05-31T01:13:49.725Z,0
2017-05-31T01:14:49.750Z,0
2017-05-31T01:15:49.782Z,0
2017-05-31T01:16:50.023Z,0
2017-05-31T01:17:49.851Z,0
2017-05-31T01:18:50.200Z,0
2017-05-31T01:19:49.910Z,0
2017-05-31T01:20:50.255Z,0
2017-05-31T01:21:50.222Z,0
2017-05-31T01:22:50.000Z,0
2017-05-31T01:23:50.343Z,0
2017-05-31T01:24:50.372Z,0
2017-05-31T01:25:50.094Z,0
2017-05-31T01:26:50.633Z,0
2017-05-31T01:27:50.152Z,0
2017-05-31T01:28:50.492Z,0
2017-05-31T01:29:49.595Z,0
2017-05-31T01:30:50.553Z,0
2017-05-31T01:31:50.826Z,0
2017-05-31T01:32:50.613Z,0
2017-05-31T01:33:50.328Z,0
2017-05-31T01:34:50.362Z,0
2017-05-31T01:35:50.702Z,0
2017-05-31T01:36:50.366Z,0
2017-05-31T01:37:50.768Z,0
2017-05-31T01:38:50.169Z,0
2017-05-31T01:39:50.828Z,0
2017-05-31T01:40:50.861Z,0
2017-05-31T01:41:51.090Z,0
2017-05-31T01:42:50.920Z,0
2017-05-31T01:43:50.327Z,0
2017-05-31T01:44:50.345Z,0
2017-05-31T01:45:50.377Z,0
2017-05-31T01:46:51.285Z,0
2017-05-31T01:47:50.753Z,0
2017-05-31T01:48:51.101Z,0
2017-05-31T01:49:51.137Z,0
2017-05-31T01:50:51.162Z,0
2017-05-31T01:51:51.388Z,0
2017-05-31T01:52:51.215Z,0
2017-05-31T01:53:51.252Z,0
2017-05-31T01:54:50.970Z,0
2017-05-31T01:55:51.310Z,0
2017-05-31T01:56:51.595Z,0
2017-05-31T01:57:51.375Z,0
2017-05-31T01:58:51.408Z,0
2017-05-31T01:59:51.110Z,0
2017-05-31T02:00:50.843Z,0
2017-05-31T02:01:51.387Z,0
2017-05-31T02:02:51.518Z,0
2017-05-31T02:03:50.929Z,0
2017-05-31T02:04:51.270Z,0
2017-05-31T02:05:51.311Z,0
2017-05-31T02:06:51.894Z,0
2017-05-31T02:07:51.669Z,0
2017-05-31T02:08:51.081Z,0
2017-05-31T02:09:51.121Z,0
2017-05-31T02:10:51.766Z,0
2017-05-31T02:11:51.798Z,0
2017-05-31T02:12:51.395Z,0
2017-05-31T02:13:51.913Z,0
2017-05-31T02:14:51.261Z,0
2017-05-31T02:15:51.917Z,0
2017-05-31T02:16:51.636Z,0
2017-05-31T02:17:52.176Z,0
2017-05-31T02:18:51.377Z,0
2017-05-31T02:19:52.037Z,0
2017-05-31T02:20:51.759Z,0
2017-05-31T02:21:51.787Z,0
2017-05-31T02:22:52.328Z,0
2017-05-31T02:23:51.533Z,0
2017-05-31T02:24:52.197Z,0
2017-05-31T02:25:51.908Z,0
2017-05-31T02:26:52.258Z,0
2017-05-31T02:27:52.540Z,0
2017-05-31T02:28:52.316Z,0
2017-05-31T02:29:52.334Z,0
2017-05-31T02:30:52.055Z,0
2017-05-31T02:31:52.404Z,0
2017-05-31T02:32:52.321Z,0
2017-05-31T02:33:52.469Z,0
2017-05-31T02:34:52.492Z,0
2017-05-31T02:35:52.520Z,0
2017-05-31T02:36:52.245Z,0
2017-05-31T02:37:52.785Z,0
2017-05-31T02:38:52.297Z,0
2017-05-31T02:39:52.338Z,0
2017-05-31T02:40:52.371Z,0
2017-05-31T02:41:52.404Z,0
2017-05-31T02:42:52.677Z,0
2017-05-31T02:43:52.450Z,0
2017-05-31T02:44:52.474Z,0
2017-05-31T02:45:52.203Z,0
2017-05-31T02:46:52.236Z,0
2017-05-31T02:47:52.772Z,0
2017-05-31T02:48:52.609Z,0
2017-05-31T02:49:52.934Z,0
2017-05-31T02:50:52.655Z,0
2017-05-31T02:51:52.384Z,0
2017-05-31T02:52:53.231Z,0
2017-05-31T02:53:52.433Z,0
2017-05-31T02:54:52.474Z,0
2017-05-31T02:55:52.810Z,0
2017-05-31T02:56:52.843Z,0
2017-05-31T02:57:52.768Z,0
2017-05-31T02:58:52.586Z,0
2017-05-31T02:59:52.939Z,0
2017-05-31T03:00:52.981Z,0
2017-05-31T03:01:53.367Z,0
2017-05-31T03:02:53.224Z,0
2017-05-31T03:03:53.062Z,0
2017-05-31T03:04:53.403Z,0
2017-05-31T03:05:52.504Z,0
2017-05-31T03:06:53.150Z,0
2017-05-31T03:07:53.684Z,0
2017-05-31T03:08:53.522Z,0
2017-05-31T03:09:53.550Z,0
2017-05-31T03:10:52.952Z,0
2017-05-31T03:11:53.612Z,0
2017-05-31T03:12:53.845Z,0
2017-05-31T03:13:53.046Z,0
2017-05-31T03:14:53.382Z,0
2017-05-31T03:15:53.107Z,0
2017-05-31T03:16:53.760Z,0
2017-05-31T03:17:53.682Z,0
2017-05-31T03:18:53.823Z,0
2017-05-31T03:19:53.538Z,0
2017-05-31T03:20:53.576Z,0
2017-05-31T03:21:53.592Z,0
2017-05-31T03:22:54.136Z,0
2017-05-31T03:23:53.970Z,0
2017-05-31T03:24:53.687Z,0
2017-05-31T03:25:54.020Z,0
2017-05-31T03:26:54.059Z,0
2017-05-31T03:27:54.353Z,0
2017-05-31T03:28:53.818Z,0
2017-05-31T03:29:53.523Z,0
2017-05-31T03:30:53.867Z,0
2017-05-31T03:31:53.897Z,0
2017-05-31T03:32:54.493Z,0
2017-05-31T03:33:54.266Z,0
2017-05-31T03:34:53.674Z,0
2017-05-31T03:35:54.020Z,0
2017-05-31T03:36:53.737Z,0
2017-05-31T03:37:54.273Z,0
2017-05-31T03:38:54.106Z,0
2017-05-31T03:39:54.151Z,0
2017-05-31T03:40:54.164Z,0
2017-05-31T03:41:54.514Z,0
2017-05-31T03:42:54.428Z,0
2017-05-31T03:43:54.266Z,0
2017-05-31T03:44:53.980Z,0
2017-05-31T03:45:54.640Z,0
2017-05-31T03:46:54.044Z,0
2017-05-31T03:47:54.575Z,0
2017-05-31T03:48:54.406Z,0
2017-05-31T03:49:54.752Z,0
2017-05-31T03:50:54.155Z,0
2017-05-31T03:51:54.501Z,0
2017-05-31T03:52:55.093Z,0
2017-05-31T03:53:54.246Z,0
2017-05-31T03:54:54.279Z,0
2017-05-31T03:55:54.620Z,0
2017-05-31T03:56:54.655Z,0
2017-05-31T03:57:54.682Z,0
2017-05-31T03:58:54.603Z,0
2017-05-31T03:59:54.119Z,0
2017-05-31T04:00:54.777Z,0
2017-05-31T04:01:54.798Z,0
2017-05-31T04:02:55.157Z,0
2017-05-31T04:03:54.751Z,0
2017-05-31T04:04:54.570Z,0
2017-05-31T04:05:54.923Z,0
2017-05-31T04:06:54.949Z,0
2017-05-31T04:07:55.290Z,0
2017-05-31T04:08:54.894Z,0
2017-05-31T04:09:55.036Z,0
2017-05-31T04:10:55.073Z,0
2017-05-31T04:11:54.794Z,0
2017-05-31T04:12:55.130Z,0
2017-05-31T04:13:55.039Z,0
2017-05-31T04:14:55.191Z,0
2017-05-31T04:15:55.228Z,0
2017-05-31T04:16:55.553Z,0
2017-05-31T04:17:55.589Z,0
2017-05-31T04:18:55.818Z,0
2017-05-31T04:19:55.031Z,0
2017-05-31T04:20:55.369Z,0
2017-05-31T04:21:55.401Z,0
2017-05-31T04:22:55.426Z,0
2017-05-31T04:23:55.662Z,0
2017-05-31T04:24:55.492Z,0
2017-05-31T04:25:55.525Z,0
2017-05-31T04:26:55.541Z,0
2017-05-31T04:27:55.887Z,0
2017-05-31T04:28:55.811Z,0
2017-05-31T04:29:55.645Z,0
2017-05-31T04:30:55.048Z,0
2017-05-31T04:31:55.706Z,0
2017-05-31T04:32:56.046Z,0
2017-05-31T04:33:56.274Z,0
2017-05-31T04:34:56.116Z,0
2017-05-31T04:35:55.822Z,0
2017-05-31T04:36:56.157Z,0
2017-05-31T04:37:56.190Z,0
2017-05-31T04:38:56.219Z,0
2017-05-31T04:39:55.312Z,0
2017-05-31T04:40:56.284Z,0
2017-05-31T04:41:55.697Z,0
2017-05-31T04:42:56.343Z,0
2017-05-31T04:43:56.261Z,0
2017-05-31T04:44:56.399Z,0
2017-05-31T04:45:57.590Z,0
2017-05-31T04:46:56.466Z,0
2017-05-31T04:47:55.868Z,0
2017-05-31T04:48:56.411Z,0
2017-05-31T04:49:56.548Z,0
2017-05-31T04:50:55.649Z,0
2017-05-31T04:51:56.614Z,5
2017-05-31T04:52:56.387Z,5
2017-05-31T04:53:56.248Z,5
2017-05-31T04:54:56.695Z,5
2017-05-31T04:55:56.737Z,5
2017-05-31T04:56:56.767Z,5
2017-05-31T04:57:56.802Z,5
2017-05-31T04:58:56.403Z,5
2017-05-31T04:59:56.544Z,5
2017-05-31T05:00:56.319Z,5
2017-05-31T05:01:55.978Z,5
2017-05-31T05:02:56.938Z,5
2017-05-31T05:03:57.172Z,5
2017-05-31T05:04:56.376Z,5
2017-05-31T05:05:56.417Z,5
2017-05-31T05:06:56.753Z,5
2017-05-31T05:07:56.466Z,5
2017-05-31T05:08:57.335Z,5
2017-05-31T05:09:56.589Z,5
2017-05-31T05:10:56.878Z,5
2017-05-31T05:11:57.210Z,5
2017-05-31T05:12:56.311Z,5
2017-05-31T05:13:57.215Z,5
2017-05-31T05:14:56.993Z,5
2017-05-31T05:15:57.022Z,5
2017-05-31T05:16:57.354Z,5
2017-05-31T05:17:57.079Z,5
2017-05-31T05:18:57.623Z,5
2017-05-31T05:19:57.140Z,5
2017-05-31T05:20:57.172Z,5
2017-05-31T05:21:56.890Z,5
2017-05-31T05:22:57.543Z,5
2017-05-31T05:23:57.780Z,5
2017-05-31T05:24:56.976Z,5
2017-05-31T05:25:57.626Z,5
2017-05-31T05:26:57.031Z,5
2017-05-31T05:27:57.694Z,5
2017-05-31T05:28:57.603Z,5
2017-05-31T05:29:57.748Z,5
2017-05-31T05:30:57.782Z,5
2017-05-31T05:31:57.190Z,5
2017-05-31T05:32:57.839Z,5
2017-05-31T05:33:57.807Z,5
2017-05-31T05:34:57.277Z,5
2017-05-31T05:35:57.934Z,5
2017-05-31T05:36:58.002Z,5
2017-05-31T05:37:57.992Z,5
2017-05-31T05:38:57.610Z,5
2017-05-31T05:39:57.736Z,5
2017-05-31T05:40:57.773Z,5
2017-05-31T05:41:58.114Z,5
2017-05-31T05:42:57.827Z,5
2017-05-31T05:43:57.804Z,5
2017-05-31T05:44:57.572Z,5
2017-05-31T05:45:58.230Z,5
2017-05-31T05:46:57.950Z,5
2017-05-31T05:47:57.383Z,5
2017-05-31T05:48:58.224Z,5
2017-05-31T05:49:58.037Z,5
2017-05-31T05:50:58.379Z,5
2017-05-31T05:51:57.791Z,5
2017-05-31T05:52:57.819Z,5
2017-05-31T05:53:58.672Z,5
2017-05-31T05:54:57.881Z,5
2017-05-31T05:55:57.905Z,5
2017-05-31T05:56:57.956Z,5
2017-05-31T05:57:58.283Z,5
2017-05-31T05:58:58.515Z,5
2017-05-31T05:59:58.357Z,5
2017-05-31T06:00:58.057Z,5
2017-05-31T06:01:58.715Z,5
2017-05-31T06:02:58.120Z,5
2017-05-31T06:03:58.651Z,5
2017-05-31T06:04:58.804Z,5
2017-05-31T06:05:58.514Z,5
2017-05-31T06:06:58.853Z,5
2017-05-31T06:07:58.576Z,5
2017-05-31T06:08:58.816Z,5
2017-05-31T06:09:58.950Z,5
2017-05-31T06:10:58.982Z,5
2017-05-31T06:11:58.701Z,5
2017-05-31T06:12:58.731Z,5
2017-05-31T06:13:58.643Z,5
2017-05-31T06:14:58.477Z,5
2017-05-31T06:15:58.506Z,5
2017-05-31T06:16:58.847Z,5
2017-05-31T06:17:58.867Z,5
2017-05-31T06:18:59.163Z,5
2017-05-31T06:19:58.937Z,5
2017-05-31T06:20:58.961Z,5
2017-05-31T06:21:59.003Z,5
2017-05-31T06:22:59.343Z,10
2017-05-31T06:23:59.257Z,10
2017-05-31T06:24:59.084Z,10
2017-05-31T06:25:59.430Z,10
2017-05-31T06:26:59.151Z,10
2017-05-31T06:27:59.506Z,10
2017-05-31T06:28:59.452Z,10
2017-05-31T06:29:59.249Z,10
2017-05-31T06:30:59.274Z,10
2017-05-31T06:31:58.990Z,10
2017-05-31T06:32:59.637Z,10
2017-05-31T06:33:59.873Z,10
2017-05-31T06:34:59.382Z,10
2017-05-31T06:35:59.730Z,10
2017-05-31T06:36:59.458Z,10
2017-05-31T06:37:59.169Z,10
2017-05-31T06:38:59.397Z,10
2017-05-31T06:39:59.851Z,10
2017-05-31T06:40:59.890Z,10
2017-05-31T06:41:59.279Z,10
2017-05-31T06:42:59.939Z,10
2017-05-31T06:43:59.864Z,10
2017-05-31T06:44:59.995Z,10
2017-05-31T06:46:00.022Z,10
2017-05-31T06:47:00.052Z,10
2017-05-31T06:47:59.147Z,10
2017-05-31T06:49:00.315Z,10
2017-05-31T06:49:59.851Z,10
2017-05-31T06:51:00.176Z,10
2017-05-31T06:52:00.208Z,10
2017-05-31T06:53:00.246Z,10
2017-05-31T06:54:00.160Z,10
2017-05-31T06:54:59.677Z,10
2017-05-31T06:56:00.087Z,10
2017-05-31T06:57:00.363Z,10
2017-05-31T06:57:59.768Z,10
2017-05-31T06:59:00.310Z,10
2017-05-31T07:00:00.133Z,10
2017-05-31T07:01:00.478Z,10
2017-05-31T07:02:00.504Z,10
2017-05-31T07:03:00.228Z,10
2017-05-31T07:03:59.632Z,10
2017-05-31T07:05:00.489Z,10
2017-05-31T07:06:00.315Z,10
2017-05-31T07:07:00.671Z,10
2017-05-31T07:08:00.691Z,10
2017-05-31T07:09:00.721Z,10
2017-05-31T07:10:01.002Z,10
2017-05-31T07:11:00.795Z,10
2017-05-31T07:12:00.188Z,10
2017-05-31T07:13:00.533Z,10
2017-05-31T07:14:00.874Z,10
2017-05-31T07:15:00.478Z,10
2017-05-31T07:16:00.619Z,10
2017-05-31T07:17:00.643Z,10
2017-05-31T07:18:00.664Z,10
2017-05-31T07:19:00.704Z,10
2017-05-31T07:20:01.246Z,10
2017-05-31T07:21:00.455Z,10
2017-05-31T07:22:01.111Z,10
2017-05-31T07:23:00.513Z,10
2017-05-31T07:24:00.866Z,10
2017-05-31T07:25:01.402Z,10
2017-05-31T07:26:00.916Z,10
2017-05-31T07:27:00.947Z,10
2017-05-31T07:28:01.294Z,10
2017-05-31T07:29:01.006Z,10
2017-05-31T07:30:01.549Z,10
2017-05-31T07:31:01.376Z,10
2017-05-31T07:32:01.104Z,10
2017-05-31T07:33:01.452Z,10
2017-05-31T07:34:00.845Z,10
2017-05-31T07:35:01.386Z,10
2017-05-31T07:36:01.212Z,10
2017-05-31T07:37:01.243Z,10
2017-05-31T07:38:01.277Z,10
2017-05-31T07:39:00.986Z,10
2017-05-31T07:40:01.223Z,10
2017-05-31T07:41:01.682Z,10
2017-05-31T07:42:01.713Z,10
2017-05-31T07:43:01.432Z,10
2017-05-31T07:44:01.456Z,10
2017-05-31T07:45:01.686Z,10
2017-05-31T07:46:01.519Z,10
2017-05-31T07:47:01.863Z,10
2017-05-31T07:48:01.892Z,10
2017-05-31T07:49:01.981Z,10
2017-05-31T07:50:02.147Z,10
2017-05-31T07:51:01.980Z,10
2017-05-31T07:52:01.384Z,10
2017-05-31T07:53:02.041Z,10
2017-05-31T07:54:02.061Z,10
2017-05-31T07:55:02.359Z,10
2017-05-31T07:56:01.841Z,10
2017-05-31T07:57:00.909Z,10
2017-05-31T07:58:01.877Z,10
2017-05-31T07:59:02.221Z,10
2017-05-31T08:00:02.496Z,10
2017-05-31T08:01:01.654Z,10
2017-05-31T08:02:01.999Z,10
2017-05-31T08:03:02.019Z,10
2017-05-31T08:04:02.365Z,10
2017-05-31T08:05:01.975Z,10
2017-05-31T08:06:02.167Z,10
2017-05-31T08:07:01.835Z,10
2017-05-31T08:08:02.480Z,10
2017-05-31T08:09:02.214Z,10
2017-05-31T08:10:02.439Z,10
2017-05-31T08:11:02.268Z,10
2017-05-31T08:12:02.611Z,10
2017-05-31T08:13:02.013Z,10
2017-05-31T08:14:02.353Z,10
2017-05-31T08:15:02.899Z,15
2017-05-31T08:16:02.422Z,15
2017-05-31T08:17:02.753Z,15
2017-05-31T08:18:02.173Z,15
2017-05-31T08:19:02.197Z,15
2017-05-31T08:20:02.417Z,10
2017-05-31T08:21:02.252Z,10
2017-05-31T08:22:02.600Z,10
2017-05-31T08:23:02.633Z,10
2017-05-31T08:24:02.970Z,10
2017-05-31T08:25:03.208Z,10
2017-05-31T08:26:03.029Z,10
2017-05-31T08:27:02.116Z,15
2017-05-31T08:28:03.085Z,15
2017-05-31T08:29:03.123Z,15
2017-05-31T08:30:02.722Z,15
2017-05-31T08:31:02.552Z,15
2017-05-31T08:32:03.213Z,15
2017-05-31T08:33:03.236Z,15
2017-05-31T08:34:02.667Z,15
2017-05-31T08:35:03.191Z,15
2017-05-31T08:36:03.340Z,15
2017-05-31T08:37:03.045Z,15
2017-05-31T08:38:03.077Z,15
2017-05-31T08:39:03.422Z,15
2017-05-31T08:40:03.639Z,15
2017-05-31T08:41:03.495Z,15
2017-05-31T08:42:02.883Z,15
2017-05-31T08:43:02.910Z,15
2017-05-31T08:44:03.244Z,15
2017-05-31T08:45:02.859Z,15
2017-05-31T08:46:03.324Z,15
2017-05-31T08:47:03.647Z,15
2017-05-31T08:48:03.058Z,15
2017-05-31T08:49:03.723Z,15
2017-05-31T08:50:03.643Z,15
2017-05-31T08:51:03.835Z,15
2017-05-31T08:52:03.492Z,15
2017-05-31T08:53:03.210Z,15
2017-05-31T08:54:03.547Z,15
2017-05-31T08:55:04.143Z,15
2017-05-31T08:56:03.614Z,15
2017-05-31T08:57:03.644Z,15
2017-05-31T08:58:03.992Z,15
2017-05-31T08:59:03.394Z,20
2017-05-31T09:00:03.984Z,20
2017-05-31T09:01:04.090Z,20
2017-05-31T09:02:03.801Z,20
2017-05-31T09:03:03.838Z,20
2017-05-31T09:04:04.181Z,20
2017-05-31T09:05:04.407Z,20
2017-05-31T09:06:03.917Z,20
2017-05-31T09:07:03.953Z,25
2017-05-31T09:08:04.302Z,25
2017-05-31T09:09:04.007Z,30
2017-05-31T09:10:04.239Z,30
2017-05-31T09:11:04.076Z,25
2017-05-31T09:12:04.097Z,25
2017-05-31T09:13:04.134Z,25
2017-05-31T09:14:04.166Z,25
2017-05-31T09:15:04.082Z,20
2017-05-31T09:16:04.238Z,20
2017-05-31T09:17:04.565Z,20
2017-05-31T09:18:03.969Z,20
2017-05-31T09:19:04.622Z,20
2017-05-31T09:20:04.546Z,20
2017-05-31T09:21:04.677Z,20
2017-05-31T09:22:04.715Z,20
2017-05-31T09:23:04.746Z,20
2017-05-31T09:24:04.451Z,20
2017-05-31T09:25:04.383Z,20
2017-05-31T09:26:04.831Z,15
2017-05-31T09:27:04.565Z,15
2017-05-31T09:28:04.886Z,15
2017-05-31T09:29:04.923Z,20
2017-05-31T09:30:04.866Z,20
2017-05-31T09:31:04.701Z,20
2017-05-31T09:32:04.702Z,20
2017-05-31T09:33:05.050Z,20
2017-05-31T09:34:05.074Z,20
2017-05-31T09:35:05.299Z,20
2017-05-31T09:36:04.848Z,20
2017-05-31T09:37:04.854Z,20
2017-05-31T09:38:04.884Z,20
2017-05-31T09:39:04.922Z,20
2017-05-31T09:40:05.139Z,20
2017-05-31T09:41:05.286Z,20
2017-05-31T09:42:04.687Z,20
2017-05-31T09:43:05.027Z,20
2017-05-31T09:44:05.071Z,20
2017-05-31T09:45:05.339Z,20
2017-05-31T09:46:05.129Z,20
2017-05-31T09:47:04.533Z,20
2017-05-31T09:48:05.190Z,20
2017-05-31T09:49:05.531Z,20
2017-05-31T09:50:05.439Z,20
2017-05-31T09:51:05.279Z,20
2017-05-31T09:52:05.000Z,20
2017-05-31T09:53:05.653Z,20
2017-05-31T09:54:05.370Z,20
2017-05-31T09:55:06.059Z,20
2017-05-31T09:56:05.740Z,20
2017-05-31T09:57:05.146Z,25
2017-05-31T09:58:05.178Z,25
2017-05-31T09:59:05.829Z,25
2017-05-31T10:00:05.748Z,25
2017-05-31T10:01:05.897Z,25
2017-05-31T10:02:05.925Z,20
2017-05-31T10:03:05.950Z,20
2017-05-31T10:04:05.667Z,20
2017-05-31T10:05:05.892Z,25
2017-05-31T10:06:05.420Z,25
2017-05-31T10:07:05.774Z,25
2017-05-31T10:08:06.101Z,25
2017-05-31T10:09:05.826Z,25
2017-05-31T10:10:06.372Z,25
2017-05-31T10:11:05.575Z,25
2017-05-31T10:12:05.606Z,25
2017-05-31T10:13:05.630Z,25
2017-05-31T10:14:06.295Z,25
2017-05-31T10:15:05.892Z,25
2017-05-31T10:16:05.726Z,25
2017-05-31T10:17:05.752Z,25
2017-05-31T10:18:06.098Z,25
2017-05-31T10:19:05.819Z,25
2017-05-31T10:20:06.665Z,25
2017-05-31T10:21:06.501Z,25
2017-05-31T10:22:06.531Z,30
2017-05-31T10:23:06.571Z,30
2017-05-31T10:24:06.279Z,30
2017-05-31T10:25:05.891Z,30
2017-05-31T10:26:06.653Z,30
2017-05-31T10:27:06.681Z,30
2017-05-31T10:28:06.402Z,25
2017-05-31T10:29:06.431Z,25
2017-05-31T10:30:06.972Z,25
2017-05-31T10:31:06.493Z,25
2017-05-31T10:32:06.838Z,25
2017-05-31T10:33:06.872Z,25
2017-05-31T10:34:06.890Z,25
2017-05-31T10:35:06.617Z,25
2017-05-31T10:36:07.160Z,25
2017-05-31T10:37:06.989Z,25
2017-05-31T10:38:06.711Z,25
2017-05-31T10:39:06.730Z,25
2017-05-31T10:40:06.768Z,25
2017-05-31T10:41:06.993Z,25
2017-05-31T10:42:06.849Z,25
2017-05-31T10:43:06.540Z,25
2017-05-31T10:44:07.195Z,25
2017-05-31T10:45:07.236Z,25
2017-05-31T10:46:07.466Z,25
2017-05-31T10:47:07.300Z,25
2017-05-31T10:48:06.704Z,30
2017-05-31T10:49:07.351Z,30
2017-05-31T10:50:07.389Z,30
2017-05-31T10:51:07.617Z,30
2017-05-31T10:52:07.128Z,30
2017-05-31T10:53:06.855Z,30
2017-05-31T10:54:06.883Z,30
2017-05-31T10:55:07.563Z,30
2017-05-31T10:56:07.760Z,30
2017-05-31T10:57:07.286Z,30
2017-05-31T10:58:06.685Z,35
2017-05-31T10:59:07.658Z,35
2017-05-31T11:00:07.372Z,35
2017-05-31T11:01:07.925Z,35
2017-05-31T11:02:07.757Z,35
2017-05-31T11:03:07.158Z,40
2017-05-31T11:04:07.191Z,40
2017-05-31T11:05:07.525Z,40
2017-05-31T11:06:07.459Z,40
2017-05-31T11:07:07.906Z,40
2017-05-31T11:08:07.931Z,40
2017-05-31T11:09:07.344Z,40
2017-05-31T11:10:07.692Z,40
2017-05-31T11:11:08.230Z,40
2017-05-31T11:12:07.431Z,35
2017-05-31T11:13:07.778Z,40
2017-05-31T11:14:07.796Z,40
2017-05-31T11:15:08.152Z,40
2017-05-31T11:16:07.748Z,40
2017-05-31T11:17:07.599Z,45
2017-05-31T11:18:08.238Z,45
2017-05-31T11:19:07.959Z,45
2017-05-31T11:20:07.985Z,45
2017-05-31T11:21:08.581Z,45
2017-05-31T11:22:08.057Z,40
2017-05-31T11:23:08.394Z,40
2017-05-31T11:24:07.799Z,40
2017-05-31T11:25:08.460Z,40
2017-05-31T11:26:08.373Z,45
2017-05-31T11:27:07.579Z,45
2017-05-31T11:28:08.550Z,50
2017-05-31T11:29:08.266Z,50
2017-05-31T11:30:08.609Z,55
2017-05-31T11:31:08.837Z,60
2017-05-31T11:32:08.061Z,65
2017-05-31T11:33:08.707Z,70
2017-05-31T11:34:08.129Z,115
2017-05-31T11:35:08.764Z,295
2017-05-31T11:36:09.006Z,470
2017-05-31T11:37:08.819Z,515
2017-05-31T11:38:08.855Z,515
2017-05-31T11:39:08.576Z,450
2017-05-31T11:40:08.593Z,500
2017-05-31T11:41:09.157Z,560
2017-05-31T11:42:08.671Z,625
2017-05-31T11:43:09.018Z,625
2017-05-31T11:44:09.044Z,715
2017-05-31T11:45:08.774Z,790
2017-05-31T11:46:09.358Z,735
2017-05-31T11:47:09.134Z,605
2017-05-31T11:48:09.171Z,610
2017-05-31T11:49:08.896Z,595
2017-05-31T11:50:09.234Z,545
2017-05-31T11:51:09.161Z,525
2017-05-31T11:52:08.985Z,565
2017-05-31T11:53:09.323Z,535
2017-05-31T11:54:09.045Z,515
2017-05-31T11:55:09.080Z,625
2017-05-31T11:56:09.310Z,630
2017-05-31T11:57:08.830Z,530
2017-05-31T11:58:09.487Z,520
2017-05-31T11:59:09.526Z,470
2017-05-31T12:00:09.253Z,400
2017-05-31T12:01:09.791Z,410
2017-05-31T12:02:09.626Z,450
2017-05-31T12:03:09.651Z,440
2017-05-31T12:04:09.372Z,430
2017-05-31T12:05:09.111Z,475
2017-05-31T12:06:09.628Z,510
2017-05-31T12:07:09.159Z,445
2017-05-31T12:08:09.505Z,430
2017-05-31T12:09:09.535Z,480
2017-05-31T12:10:09.565Z,460
2017-05-31T12:11:09.807Z,495
2017-05-31T12:12:09.951Z,480
2017-05-31T12:13:09.984Z,425
2017-05-31T12:14:10.028Z,400
2017-05-31T12:15:10.061Z,435
2017-05-31T12:16:10.288Z,670
2017-05-31T12:17:09.499Z,725
2017-05-31T12:18:10.163Z,500
2017-05-31T12:19:10.216Z,480
2017-05-31T12:20:10.223Z,470
2017-05-31T12:21:10.402Z,430
2017-05-31T12:22:09.991Z,405
2017-05-31T12:23:10.016Z,490
2017-05-31T12:24:09.758Z,480
2017-05-31T12:25:10.401Z,440
2017-05-31T12:26:09.694Z,505
2017-05-31T12:27:09.224Z,600
2017-05-31T12:28:09.880Z,630
2017-05-31T12:29:10.543Z,585
2017-05-31T12:30:10.266Z,670
2017-05-31T12:31:10.561Z,670
2017-05-31T12:32:10.652Z,520
2017-05-31T12:33:10.376Z,580
2017-05-31T12:34:10.404Z,565
2017-05-31T12:35:10.754Z,625
2017-05-31T12:36:10.674Z,630
2017-05-31T12:37:10.827Z,640
2017-05-31T12:38:10.864Z,700
2017-05-31T12:39:10.896Z,555
2017-05-31T12:40:10.934Z,495
2017-05-31T12:41:10.594Z,480
2017-05-31T12:42:10.696Z,700
2017-05-31T12:43:11.040Z,875
2017-05-31T12:44:11.072Z,730
2017-05-31T12:45:10.804Z,625
2017-05-31T12:46:11.089Z,635
2017-05-31T12:47:10.871Z,790
2017-05-31T12:48:11.217Z,820
2017-05-31T12:49:11.248Z,750
2017-05-31T12:50:11.301Z,680
2017-05-31T12:51:11.531Z,980
2017-05-31T12:52:11.051Z,915
2017-05-31T12:53:10.764Z,670
2017-05-31T12:54:11.435Z,620
2017-05-31T12:55:11.470Z,495
2017-05-31T12:56:11.079Z,540
2017-05-31T12:57:10.922Z,340
2017-05-31T12:58:11.280Z,220
2017-05-31T12:59:11.000Z,195
2017-05-31T13:00:11.654Z,190
2017-05-31T13:01:11.887Z,185
2017-05-31T13:02:11.416Z,180
2017-05-31T13:03:11.444Z,170
2017-05-31T13:04:11.788Z,165
2017-05-31T13:05:11.830Z,170
2017-05-31T13:06:12.143Z,195
2017-05-31T13:07:11.591Z,185
2017-05-31T13:08:11.928Z,175
2017-05-31T13:09:11.702Z,165
2017-05-31T13:10:11.695Z,165
2017-05-31T13:11:11.986Z,160
2017-05-31T13:12:11.775Z,165
2017-05-31T13:13:12.113Z,160
2017-05-31T13:14:11.840Z,155
2017-05-31T13:15:11.870Z,160
2017-05-31T13:16:12.111Z,170
2017-05-31T13:17:11.640Z,170
2017-05-31T13:18:11.976Z,160
2017-05-31T13:19:11.701Z,150
2017-05-31T13:20:11.738Z,145
2017-05-31T13:21:12.599Z,140
2017-05-31T13:22:12.126Z,145
2017-05-31T13:23:12.154Z,135
2017-05-31T13:24:11.571Z,130
2017-05-31T13:25:11.910Z,105
2017-05-31T13:26:12.523Z,55
2017-05-31T13:27:12.300Z,60
2017-05-31T13:28:12.336Z,50
2017-05-31T13:29:12.678Z,40
2017-05-31T13:30:12.717Z,60
2017-05-31T13:31:12.997Z,45
2017-05-31T13:32:12.472Z,115
2017-05-31T13:33:12.503Z,115
2017-05-31T13:34:12.855Z,120
2017-05-31T13:35:12.885Z,115
2017-05-31T13:36:13.179Z,115
2017-05-31T13:37:12.656Z,115
2017-05-31T13:38:12.685Z,110
2017-05-31T13:39:12.405Z,110
2017-05-31T13:40:12.743Z,110
2017-05-31T13:41:12.500Z,110
2017-05-31T13:42:12.711Z,110
2017-05-31T13:43:12.848Z,105
2017-05-31T13:44:12.893Z,105
2017-05-31T13:45:13.229Z,105
2017-05-31T13:46:13.275Z,105
2017-05-31T13:47:12.623Z,105
2017-05-31T13:48:13.341Z,95
2017-05-31T13:49:13.369Z,105
2017-05-31T13:50:13.406Z,105
2017-05-31T13:51:12.848Z,105
2017-05-31T13:52:13.109Z,105
2017-05-31T13:53:13.521Z,30
2017-05-31T13:54:12.930Z,25
2017-05-31T13:55:13.266Z,30
2017-05-31T13:56:13.628Z,35
2017-05-31T13:57:13.861Z,60
2017-05-31T13:58:13.377Z,105
2017-05-31T13:59:13.405Z,105
2017-05-31T14:00:13.755Z,105
2017-05-31T14:01:13.480Z,105
2017-05-31T14:02:13.770Z,105
2017-05-31T14:03:13.229Z,105
2017-05-31T14:04:13.586Z,100
2017-05-31T14:05:13.615Z,100
2017-05-31T14:06:13.960Z,100
2017-05-31T14:07:13.891Z,100
2017-05-31T14:08:13.721Z,100
2017-05-31T14:09:14.062Z,100
2017-05-31T14:10:14.099Z,100
2017-05-31T14:11:14.137Z,100
2017-05-31T14:12:14.061Z,95
2017-05-31T14:13:14.200Z,90
2017-05-31T14:14:13.918Z,75
2017-05-31T14:15:13.657Z,45
2017-05-31T14:16:14.305Z,30
2017-05-31T14:17:13.925Z,30
2017-05-31T14:18:14.061Z,30
2017-05-31T14:19:14.410Z,30
2017-05-31T14:20:14.140Z,30
2017-05-31T14:21:13.866Z,30
2017-05-31T14:22:14.764Z,75
2017-05-31T14:23:14.234Z,85
2017-05-31T14:24:14.575Z,85
2017-05-31T14:25:14.622Z,85